Página principal
METAR-TAF:

METAR-TAF

Aeroportos :

Longyearbyen, Noruega

latitude: 78-15N, longitude: 015-28E, altura: 2 m

Observação actual do tempo

O boletim foi feito há 24 minutos, às 03:50 UTC
Vento 6 kt de es-sudeste
Temperatura 3°C
Humidade 81%
Pressão 1007 hPa
Visibilidade 10 km ou mais
Nuvens fragmentadasa uma altura de 2500 ft
chuvisco fraco

METAR: ENSB 240350Z 11006KT 9999 -DZ BKN025 03/M00 Q1007 RMK WIND 1400FT 21010KT

Hora: 06:14 (04:14 UTC)

Previsão

Previsão válida de 24 às 00 UTC a 24 às 24 UTC
Vento 15 kt de su-sudeste
Visibilidade 10 km ou mais
Poucas nuvensa uma altura de 3000 ft
Nuvens fragmentadasa uma altura de 4000 ft
Temporariamente
de 24 às 00 UTC a 24 às 18 UTC
Vento 8 kt com direcção variável
Visibilidade: 2000 m
Nuvens fragmentadasa uma altura de 1200 ft
aguaceiros de chuva, neve
Tornando-se
de 24 às 13 UTC a 24 às 15 UTC
Vento 12 kt de oeste

TAF: ENSB 2400/2424 16015KT 9999 FEW030 BKN040 TEMPO 2400/2418 VRB08KT 2000 SHRASN BKN012 BECMG 2413/2415 26012KT

Observações e previsões do tempo de mais de 4000 aeroportos (mensagens METAR e TAF).

As estações disponíveis são os pontos amarelos e vermelhos sobre o mapa.

Mova o rato sobre o mapa para ver o nome da estação.

Depois clique no ponto para visualizar as observações e previsões meteorológicas.

Para alterar o mapa : clique nos botões verdes com uma cruz preta para aumentar o zoom; no botão verde com uma pitada de zoom; ou nas setas verdes para mapas adjacentes.


METAR-TAF: